Burgos, Spain

9:55 PM CEST on July 26, 2016 (GMT +0200)
Calle Travesía Escuelas | | Change Station

Elev 2854 ft 42.35 °N, 3.67 °W | Updated 24 seconds ago

Clear
Clear
69.8 °F
Feels Like 69.8 °F
N
3.1
Wind Variable Wind from West
Gusts 5.6 mph

Today
High -- | Low -- °F
--% Chance of Precip.
Yesterday
High -- | Low -- °F
Precip. -- in
Pressure 30.21 in
Visibility 6.2 miles
Clouds
Dew Point 54 °F
Humidity 57%
Rainfall 0.00 in
Snow Depth Not available.
7:01 AM 9:40 PM
Waning Gibbous, 51% visible
METAR LEBG 261930Z AUTO 02013KT 9999 NCD 19/14 Q1023
Pressure 30.21 in
Visibility 6.2 miles
Clouds
Dew Point 54 °F
Humidity 57%
Rainfall 0.00 in
Snow Depth Not available.
7:01 AM 9:40 PM
Waning Gibbous, 51% visible
METAR LEBG 261930Z AUTO 02013KT 9999 NCD 19/14 Q1023

10-Day Weather Forecast

×

Almanac

Astronomy

Jul. 26, 2016 Rise Set
Actual Time
Civil Twilight
Nautical Twilight
Astronomical Twilight
Moon
Length of Visible Light
Length of Day
Tomorrow will be .
, % of the Moon is Illuminated

Today's Extremes

Country Highs Country Lows

Community

WunderPhotos

Upload Photos

1,927,667 photos uploaded!

WunderBlog® & News

Nearby

Air Quality

  Air Quality AQ Index Pollutant
Not available.

Snow Depth

Station Depth Elevation

Earthquake Activity

City Distance Mag. Time & Date
Minimum magnitude displayed is 2.5.

Coastal Water Temperatures

Place Temperature

Stations

Nearby Weather Stations

Station Location Temp. Windchill Dew Point Humidity Wind Precip. Elev Updated Type